Time;durP1;ratioP1;P1;durP2;ratioP2;P2;SDS_P1;SDS_P2;PMS_P1;PMS_P2;Temp;Humidity;BMP_temperature;BMP_pressure;BME280_temperature;BME280_humidity;BME280_pressure;Samples;Min_cycle;Max_cycle;Signal;HPM_P1;HPM_P2
2024/03/22 00:01:41;;;;;;;18.30;14.00;;;;;;;13.38;60.89;101567.50;5075608;28;20377;-76
2024/03/22 00:04:06;;;;;;;18.53;14.20;;;;;;;12.16;63.20;101565.78;5075154;28;20230;-75
2024/03/22 00:06:31;;;;;;;17.60;14.73;;;;;;;13.24;61.42;101551.59;5075616;28;20549;-76
2024/03/22 00:08:57;;;;;;;16.73;13.43;;;;;;;13.21;61.36;101544.59;5074942;28;20242;-75
2024/03/22 00:11:22;;;;;;;17.27;14.30;;;;;;;13.03;61.57;101542.63;5075309;28;20195;-77
2024/03/22 00:13:47;;;;;;;14.90;13.30;;;;;;;13.09;61.65;101547.06;5081515;28;20175;-76
2024/03/22 00:16:12;;;;;;;14.60;13.10;;;;;;;13.35;61.04;101552.59;5093633;28;20219;-77
2024/03/22 00:18:38;;;;;;;16.40;14.40;;;;;;;13.57;60.70;101547.63;5091973;28;20206;-76
2024/03/22 00:21:03;;;;;;;15.97;13.83;;;;;;;13.55;60.45;101539.75;5093785;28;20195;-76
2024/03/22 00:23:30;;;;;;;18.90;13.80;;;;;;;13.51;61.04;101537.97;5094384;28;20199;-76
2024/03/22 00:25:55;;;;;;;16.03;14.33;;;;;;;13.24;61.64;101535.91;5094348;28;20168;-75
2024/03/22 00:28:20;;;;;;;17.67;14.97;;;;;;;13.51;60.84;101530.09;5093913;28;20875;-76
2024/03/22 00:30:46;;;;;;;18.53;14.07;;;;;;;13.34;60.73;101526.41;5094319;28;20252;-76
2024/03/22 00:33:11;;;;;;;15.80;14.10;;;;;;;13.16;60.75;101529.69;5094382;28;20198;-75
2024/03/22 00:35:36;;;;;;;17.70;13.60;;;;;;;13.47;60.68;101520.47;5093839;28;20180;-76
2024/03/22 00:38:01;;;;;;;15.60;14.00;;;;;;;13.51;60.51;101521.38;5094060;28;20208;-76
2024/03/22 00:40:27;;;;;;;17.87;15.47;;;;;;;13.35;61.36;101512.44;5093873;28;20544;-76
2024/03/22 00:42:52;;;;;;;16.17;14.43;;;;;;;13.71;60.66;101504.09;5094256;28;20656;-75
2024/03/22 00:45:17;;;;;;;17.27;14.33;;;;;;;13.00;62.70;101511.16;5094322;28;20339;-76
2024/03/22 00:47:43;;;;;;;19.27;15.33;;;;;;;13.03;61.77;101506.00;5094103;28;20198;-76
2024/03/22 00:50:08;;;;;;;17.80;14.90;;;;;;;13.28;61.84;101503.66;5094077;28;20543;-77
2024/03/22 00:52:33;;;;;;;20.10;17.13;;;;;;;13.88;60.11;101492.88;5092691;28;20184;-76
2024/03/22 00:54:59;;;;;;;23.17;15.80;;;;;;;13.79;60.14;101484.06;5093805;28;20180;-76
2024/03/22 00:57:24;;;;;;;17.23;15.43;;;;;;;13.39;61.26;101488.06;5093693;28;20200;-76
2024/03/22 00:59:49;;;;;;;19.20;15.47;;;;;;;13.27;61.32;101488.78;5093692;28;20172;-75
2024/03/22 01:02:15;;;;;;;19.40;15.40;;;;;;;13.47;60.79;101482.03;5093130;28;20329;-76
2024/03/22 01:04:41;;;;;;;20.13;15.83;;;;;;;13.38;61.12;101487.22;5093755;28;20193;-76
2024/03/22 01:07:06;;;;;;;17.73;14.67;;;;;;;13.16;61.58;101474.72;5093506;28;20166;-75
2024/03/22 01:09:31;;;;;;;17.00;14.83;;;;;;;13.40;61.56;101469.75;5092825;28;20484;-76
2024/03/22 01:11:57;;;;;;;15.63;14.03;;;;;;;13.61;60.71;101468.19;5093581;28;20176;-75
2024/03/22 01:14:22;;;;;;;16.57;14.77;;;;;;;12.73;62.60;101460.28;5093654;28;20172;-76
2024/03/22 01:16:47;;;;;;;17.23;15.27;;;;;;;12.18;63.96;101455.19;5093223;28;20622;-76
2024/03/22 01:19:12;;;;;;;16.43;13.80;;;;;;;13.52;61.35;101455.00;5092531;28;20196;-76
2024/03/22 01:21:38;;;;;;;19.97;16.43;;;;;;;12.38;64.17;101450.25;5093097;28;20172;-75
2024/03/22 01:24:03;;;;;;;17.53;14.67;;;;;;;13.10;62.74;101447.59;5093043;28;20210;-76
2024/03/22 01:26:28;;;;;;;19.57;15.90;;;;;;;11.92;64.82;101437.34;5092827;28;20230;-76
2024/03/22 01:28:54;;;;;;;17.77;15.20;;;;;;;12.07;65.53;101439.34;5092685;28;20200;-76
2024/03/22 01:31:19;;;;;;;23.03;15.40;;;;;;;12.69;62.67;101428.81;5093066;28;20255;-76
2024/03/22 01:33:44;;;;;;;18.10;15.57;;;;;;;12.73;63.71;101422.75;5092034;28;20167;-75
2024/03/22 01:36:09;;;;;;;19.07;16.20;;;;;;;12.96;63.09;101420.38;5092354;28;20191;-76
2024/03/22 01:38:35;;;;;;;20.77;15.90;;;;;;;12.57;63.75;101400.75;5092645;28;20188;-76
2024/03/22 01:41:00;;;;;;;21.43;16.40;;;;;;;12.90;63.20;101389.81;5092665;28;20180;-76
2024/03/22 01:43:25;;;;;;;24.57;18.17;;;;;;;12.65;63.83;101383.44;5091396;28;20233;-76
2024/03/22 01:45:50;;;;;;;17.93;15.73;;;;;;;11.69;66.62;101387.38;5088205;28;20185;-76
2024/03/22 01:48:16;;;;;;;20.13;17.33;;;;;;;12.32;64.64;101384.78;5072265;28;20201;-76
2024/03/22 01:50:43;;;;;;;21.40;18.30;;;;;;;12.15;65.24;101373.22;5072658;28;20238;-75
2024/03/22 01:53:08;;;;;;;24.77;19.00;;;;;;;12.46;64.25;101378.00;5071501;28;20279;-75
2024/03/22 01:55:34;;;;;;;21.00;17.60;;;;;;;13.03;62.88;101375.13;5089702;28;20505;-76
2024/03/22 01:58:00;;;;;;;23.37;18.60;;;;;;;12.91;63.55;101372.38;5090840;28;20219;-76
2024/03/22 02:00:25;;;;;;;20.57;17.13;;;;;;;12.27;64.54;101371.66;5092505;28;20183;-75
2024/03/22 02:02:50;;;;;;;23.17;18.90;;;;;;;12.51;63.85;101375.41;5091915;28;20653;-75
2024/03/22 02:05:19;;;;;;;24.93;19.30;;;;;;;12.73;64.05;101368.72;5092663;28;20178;-76
2024/03/22 02:07:45;;;;;;;22.13;18.10;;;;;;;12.89;63.16;101367.09;5092352;28;20191;-76
2024/03/22 02:10:11;;;;;;;21.97;18.50;;;;;;;13.04;63.04;101362.91;5090980;28;20522;-76
2024/03/22 02:12:37;;;;;;;25.30;18.60;;;;;;;13.26;62.61;101357.00;5092425;28;21140;-77
2024/03/22 02:15:03;;;;;;;24.50;20.37;;;;;;;12.64;64.60;101355.53;5074410;28;20222;-76
2024/03/22 02:17:28;;;;;;;22.53;19.40;;;;;;;12.49;64.33;101344.88;5082107;28;20469;-76
2024/03/22 02:19:54;;;;;;;24.70;20.17;;;;;;;12.78;64.11;101346.06;5092360;28;20218;-76
2024/03/22 02:22:19;;;;;;;23.47;20.50;;;;;;;13.25;63.32;101323.81;5093933;28;20548;-76
2024/03/22 02:24:44;;;;;;;25.60;20.50;;;;;;;13.58;61.42;101319.72;5094187;28;20178;-76
2024/03/22 02:27:09;;;;;;;23.83;21.03;;;;;;;13.83;61.14;101325.13;5094900;28;20239;-76
2024/03/22 02:29:35;;;;;;;23.67;20.33;;;;;;;14.08;60.64;101323.47;5094997;28;20239;-76
2024/03/22 02:32:00;;;;;;;23.70;19.57;;;;;;;13.30;61.95;101324.72;5094124;28;20168;-76
2024/03/22 02:34:25;;;;;;;26.10;20.90;;;;;;;14.27;60.13;101323.56;5092083;28;20178;-76
2024/03/22 02:36:50;;;;;;;24.93;20.03;;;;;;;14.42;59.51;101323.63;5091091;28;20254;-76
2024/03/22 02:39:16;;;;;;;23.30;19.90;;;;;;;12.77;63.71;101336.47;5092016;28;20192;-76
2024/03/22 02:41:41;;;;;;;25.83;19.70;;;;;;;12.80;64.09;101339.13;5092287;28;20168;-77
2024/03/22 02:44:06;;;;;;;24.03;20.70;;;;;;;13.00;64.01;101332.31;5092787;28;20176;-76
2024/03/22 02:46:32;;;;;;;25.00;20.80;;;;;;;13.19;63.04;101322.88;5097851;28;20190;-75
2024/03/22 02:48:57;;;;;;;26.80;21.20;;;;;;;13.19;63.10;101325.50;5096271;28;20287;-75
2024/03/22 02:51:22;;;;;;;25.37;20.90;;;;;;;13.39;63.07;101326.56;5096674;28;20551;-76
2024/03/22 02:53:48;;;;;;;31.20;24.30;;;;;;;12.88;64.27;101322.59;5096273;28;20180;-76
2024/03/22 02:56:13;;;;;;;25.30;22.23;;;;;;;13.38;62.94;101314.34;5095167;28;20287;-75
2024/03/22 02:58:38;;;;;;;31.00;23.90;;;;;;;12.95;63.74;101319.22;5103017;22;20231;-76
2024/03/22 03:01:03;;;;;;;30.70;24.77;;;;;;;13.08;64.01;101313.22;5076591;28;20173;-76
2024/03/22 03:03:29;;;;;;;29.00;23.80;;;;;;;13.32;62.93;101306.41;5076585;28;20176;-77
2024/03/22 03:05:54;;;;;;;31.40;24.47;;;;;;;13.12;63.73;101306.25;5076085;28;20416;-77
2024/03/22 03:08:19;;;;;;;28.93;24.70;;;;;;;13.58;62.38;101290.88;5076361;28;20247;-76
2024/03/22 03:10:45;;;;;;;30.30;26.80;;;;;;;13.59;62.06;101289.16;5076585;28;20259;-75
2024/03/22 03:13:11;;;;;;;33.60;25.10;;;;;;;13.58;62.60;101290.03;5076374;28;20177;-77
2024/03/22 03:15:36;;;;;;;31.67;24.77;;;;;;;14.03;61.66;101278.03;5061305;28;20201;-77
2024/03/22 03:18:01;;;;;;;30.63;25.23;;;;;;;13.81;62.27;101280.56;5076140;28;20239;-76
2024/03/22 03:20:26;;;;;;;30.60;25.57;;;;;;;13.78;62.09;101270.03;5078007;28;20657;-76
2024/03/22 03:22:52;;;;;;;32.50;26.03;;;;;;;13.97;61.44;101262.28;5076318;28;20169;-77
2024/03/22 03:25:17;;;;;;;31.07;24.97;;;;;;;13.82;62.02;101263.94;5074920;28;20650;-77
2024/03/22 03:27:42;;;;;;;35.47;26.40;;;;;;;14.11;61.38;101262.31;5057729;28;20166;-77
2024/03/22 03:30:08;;;;;;;33.00;25.90;;;;;;;13.86;62.12;101258.75;5055303;28;20181;-76
2024/03/22 03:32:33;;;;;;;32.00;26.43;;;;;;;14.25;61.14;101263.25;5055577;28;20265;-76
2024/03/22 03:34:59;;;;;;;33.77;26.60;;;;;;;13.95;62.18;101259.66;5055526;28;20196;-76
2024/03/22 03:37:24;;;;;;;33.20;27.57;;;;;;;14.27;60.92;101258.00;5055270;28;20201;-76
2024/03/22 03:39:49;;;;;;;31.17;26.67;;;;;;;13.66;62.52;101256.88;5055572;28;20194;-77
2024/03/22 03:42:14;;;;;;;34.83;26.83;;;;;;;12.91;65.22;101254.63;5056534;28;20177;-76
2024/03/22 03:44:41;;;;;;;37.70;28.70;;;;;;;13.67;62.89;101248.16;5055939;28;20639;-76
2024/03/22 03:47:06;;;;;;;35.80;27.87;;;;;;;14.02;62.40;101246.53;5055776;28;20165;-75
2024/03/22 03:49:31;;;;;;;34.33;28.87;;;;;;;13.53;63.45;101239.34;5055334;28;20784;-76
2024/03/22 03:51:57;;;;;;;35.90;28.60;;;;;;;13.44;63.55;101241.03;5055080;28;20299;-77
2024/03/22 03:54:22;;;;;;;33.60;28.90;;;;;;;14.21;62.42;101234.41;5055358;28;20662;-76
2024/03/22 03:56:48;;;;;;;36.40;29.10;;;;;;;13.66;63.10;101216.72;5054864;28;20251;-77
2024/03/22 03:59:13;;;;;;;37.40;29.80;;;;;;;13.43;63.61;101214.84;5055350;28;20566;-76
2024/03/22 04:01:38;;;;;;;38.17;29.27;;;;;;;13.23;64.77;101210.34;5055804;28;20188;-77
2024/03/22 04:04:04;;;;;;;36.20;28.83;;;;;;;13.75;63.21;101209.75;5077187;28;20241;-75
2024/03/22 04:06:29;;;;;;;38.23;30.57;;;;;;;13.62;62.71;101207.97;5068060;28;20181;-77
2024/03/22 04:08:55;;;;;;;39.43;29.87;;;;;;;13.59;63.12;101197.47;5056605;28;20190;-77
2024/03/22 04:11:20;;;;;;;37.90;29.50;;;;;;;13.78;62.73;101191.44;5057773;28;20521;-76
2024/03/22 04:13:45;;;;;;;44.00;30.47;;;;;;;13.22;64.84;101194.63;5064593;28;20608;-77
2024/03/22 04:16:11;;;;;;;36.77;30.23;;;;;;;13.75;63.16;101182.69;5075913;28;20235;-77
2024/03/22 04:18:36;;;;;;;36.93;30.40;;;;;;;13.89;62.54;101174.88;5056630;28;20275;-74
2024/03/22 04:21:01;;;;;;;34.80;28.70;;;;;;;13.96;62.58;101168.75;5075339;28;20226;-77
2024/03/22 04:23:27;;;;;;;37.57;29.87;;;;;;;13.53;63.31;101176.47;5057512;28;20173;-76
2024/03/22 04:25:58;;;;;;;39.00;29.30;;;;;;;13.64;63.25;101180.91;5051129;28;20215;-77
2024/03/22 04:28:26;;;;;;;34.87;28.30;;;;;;;14.03;62.56;101165.31;5036772;28;20255;-77
2024/03/22 04:31:03;;;;;;;39.40;30.40;;;;;;;13.76;63.21;101176.56;5054812;28;20431;-75
2024/03/22 04:33:29;;;;;;;45.30;35.57;;;;;;;14.10;62.21;101168.81;5055463;28;20416;-76
2024/03/22 04:35:58;;;;;;;45.60;33.80;;;;;;;14.42;61.48;101175.84;5054655;28;20393;-77
2024/03/22 04:38:27;;;;;;;46.73;35.90;;;;;;;14.00;62.48;101172.28;5054932;28;20439;-77
2024/03/22 04:40:55;;;;;;;41.03;32.90;;;;;;;12.80;64.99;101158.59;5054812;28;20387;-76
2024/03/22 04:43:20;;;;;;;40.40;32.00;;;;;;;13.78;63.29;101154.75;5054481;28;20486;-76
2024/03/22 04:45:47;;;;;;;54.73;38.13;;;;;;;13.97;63.00;101149.56;5036795;28;20420;-77
2024/03/22 04:48:14;;;;;;;39.30;32.70;;;;;;;14.11;62.48;101152.19;5054436;28;20181;-77
2024/03/22 04:50:40;;;;;;;39.77;32.73;;;;;;;14.01;62.12;101151.31;5054560;28;20404;-77
2024/03/22 04:53:05;;;;;;;39.47;30.80;;;;;;;13.47;62.63;101146.75;5054064;28;20404;-77
2024/03/22 04:55:32;;;;;;;40.40;32.10;;;;;;;14.04;62.38;101140.81;5053956;28;20211;-76
2024/03/22 04:57:58;;;;;;;44.60;32.30;;;;;;;14.36;61.97;101132.13;5053532;28;20207;-76
2024/03/22 05:00:24;;;;;;;42.17;31.27;;;;;;;13.26;64.89;101130.91;5036036;28;20416;-76
2024/03/22 05:02:50;;;;;;;39.00;30.73;;;;;;;13.18;64.29;101116.91;5035899;28;20252;-76
2024/03/22 05:05:15;;;;;;;38.77;30.80;;;;;;;13.75;64.04;101122.44;5053724;28;20547;-76
2024/03/22 05:07:41;;;;;;;38.80;32.10;;;;;;;13.24;64.39;101122.19;5053620;28;20238;-75
2024/03/22 05:10:06;;;;;;;50.73;38.30;;;;;;;13.89;63.28;101135.56;5053943;28;20169;-77
2024/03/22 05:12:32;;;;;;;43.90;34.87;;;;;;;13.60;64.29;101128.50;5053600;28;20276;-76
2024/03/22 05:14:57;;;;;;;39.10;30.50;;;;;;;13.94;63.09;101123.34;5069799;28;20169;-75
2024/03/22 05:17:22;;;;;;;36.60;29.80;;;;;;;13.67;64.01;101119.78;5073722;28;20196;-77
2024/03/22 05:19:48;;;;;;;40.20;32.03;;;;;;;13.86;63.82;101120.69;5073468;28;20212;-77
2024/03/22 05:22:13;;;;;;;42.87;32.60;;;;;;;13.82;64.14;101117.19;5073700;28;20177;-76
2024/03/22 05:24:38;;;;;;;43.33;33.00;;;;;;;13.70;63.94;101122.41;5073200;28;20189;-76
2024/03/22 05:27:04;;;;;;;46.70;32.57;;;;;;;13.61;64.30;101117.13;5040290;28;20180;-76
2024/03/22 05:29:29;;;;;;;41.50;32.67;;;;;;;13.86;63.95;101106.72;5053126;28;20562;-75
2024/03/22 05:31:54;;;;;;;49.40;38.07;;;;;;;13.90;63.36;101113.72;5053626;28;20643;-76
2024/03/22 05:34:20;;;;;;;46.33;32.20;;;;;;;14.29;62.72;101106.78;5053703;28;20188;-76
2024/03/22 05:36:46;;;;;;;42.43;34.70;;;;;;;14.07;63.28;101108.50;5055330;28;20193;-77
2024/03/22 05:39:12;;;;;;;42.57;33.30;;;;;;;13.12;65.25;101113.44;5057640;28;20185;-77
2024/03/22 05:41:37;;;;;;;46.13;32.00;;;;;;;13.05;65.85;101119.47;5057371;28;20420;-77
2024/03/22 05:44:03;;;;;;;43.97;33.37;;;;;;;13.99;63.75;101108.50;5037462;28;20464;-76
2024/03/22 05:46:29;;;;;;;48.00;34.30;;;;;;;13.74;64.24;101107.56;5055257;28;20463;-77
2024/03/22 05:48:54;;;;;;;46.33;34.40;;;;;;;13.48;65.03;101114.47;5054083;28;20196;-77
2024/03/22 05:51:19;;;;;;;62.63;44.40;;;;;;;13.46;65.70;101103.13;5069077;28;20488;-75
2024/03/22 05:53:45;;;;;;;47.17;34.80;;;;;;;13.70;64.97;101100.56;5069520;28;20231;-76
2024/03/22 05:56:10;;;;;;;51.07;36.27;;;;;;;13.18;66.15;101103.84;5054962;28;20466;-77
2024/03/22 05:58:36;;;;;;;41.43;33.03;;;;;;;13.38;65.86;101102.22;5053042;28;20205;-76
2024/03/22 06:01:02;;;;;;;42.87;32.80;;;;;;;13.46;66.10;101099.63;5053234;28;20177;-75
2024/03/22 06:03:28;;;;;;;43.90;34.20;;;;;;;13.12;66.65;101105.56;5052652;28;20696;-77
2024/03/22 06:05:56;;;;;;;45.27;35.13;;;;;;;13.16;66.89;101101.22;5053030;28;20399;-77
2024/03/22 06:08:21;;;;;;;48.00;36.17;;;;;;;14.00;64.80;101084.03;5053698;28;20193;-77
2024/03/22 06:10:47;;;;;;;48.30;35.80;;;;;;;13.64;65.79;101067.38;5053548;28;20466;-77
2024/03/22 06:13:12;;;;;;;46.23;35.57;;;;;;;13.68;65.68;101070.88;5055157;28;20173;-77
2024/03/22 06:15:38;;;;;;;47.60;36.10;;;;;;;13.60;65.90;101068.25;5073570;28;20549;-77
2024/03/22 06:18:03;;;;;;;48.30;36.50;;;;;;;13.40;66.28;101076.91;5073572;28;20515;-77
2024/03/22 06:20:28;;;;;;;55.90;35.67;;;;;;;12.74;68.16;101080.03;5072840;28;20575;-77
2024/03/22 06:22:53;;;;;;;43.20;33.20;;;;;;;13.23;66.99;101078.56;5073500;28;20223;-76
2024/03/22 06:25:19;;;;;;;48.13;35.97;;;;;;;13.57;66.16;101081.31;5072681;28;20658;-77
2024/03/22 06:27:44;;;;;;;46.23;35.57;;;;;;;12.75;68.29;101084.41;5053662;28;20173;-77
2024/03/22 06:30:10;;;;;;;45.43;33.73;;;;;;;13.13;67.89;101075.88;5052867;28;20264;-77
2024/03/22 06:32:35;;;;;;;46.17;36.43;;;;;;;13.96;65.67;101066.53;5036774;28;20173;-77
2024/03/22 06:35:00;;;;;;;43.33;34.10;;;;;;;13.92;65.59;101065.69;5053683;28;20257;-77
2024/03/22 06:37:26;;;;;;;47.80;36.77;;;;;;;13.25;66.64;101062.00;5055644;28;20251;-76
2024/03/22 06:39:51;;;;;;;46.53;34.80;;;;;;;13.18;67.89;101054.09;5053021;28;20189;-77
2024/03/22 06:42:16;;;;;;;47.13;34.77;;;;;;;13.68;66.78;101040.31;5053348;28;20173;-77
2024/03/22 06:44:41;;;;;;;50.27;34.53;;;;;;;13.78;66.55;101038.56;5055600;28;20169;-78
2024/03/22 06:47:07;;;;;;;45.23;34.50;;;;;;;14.06;65.47;101043.81;5053354;28;20178;-77
2024/03/22 06:49:32;;;;;;;46.83;36.83;;;;;;;14.26;65.24;101034.22;5053207;28;20692;-77
2024/03/22 06:51:57;;;;;;;49.67;36.97;;;;;;;13.61;66.16;101031.56;5053618;28;20176;-77
2024/03/22 06:54:23;;;;;;;50.37;37.53;;;;;;;14.02;65.14;101019.38;5053433;28;20554;-77
2024/03/22 06:56:49;;;;;;;47.07;36.97;;;;;;;14.17;65.33;101022.84;5053295;28;20243;-77
2024/03/22 06:59:14;;;;;;;42.20;34.10;;;;;;;13.64;66.75;101017.59;5052974;28;20482;-76
2024/03/22 07:01:39;;;;;;;47.97;36.13;;;;;;;14.37;65.14;101000.13;5054330;28;20527;-77
2024/03/22 07:04:04;;;;;;;48.73;36.47;;;;;;;13.58;66.77;101010.59;5056944;28;20169;-76
2024/03/22 07:06:30;;;;;;;48.40;35.73;;;;;;;13.75;66.95;101009.75;5057723;28;20200;-77
2024/03/22 07:08:55;;;;;;;47.40;36.27;;;;;;;13.85;65.79;101010.63;5057789;28;20199;-77
2024/03/22 07:11:22;;;;;;;47.70;36.60;;;;;;;14.14;65.77;101016.75;5055822;28;20245;-76
2024/03/22 07:13:47;;;;;;;50.47;36.47;;;;;;;14.35;65.09;101027.22;5065609;28;20193;-77
2024/03/22 07:16:13;;;;;;;48.50;36.97;;;;;;;14.57;64.56;101013.19;5074391;28;20418;-76
2024/03/22 07:18:38;;;;;;;44.70;34.93;;;;;;;14.31;65.18;101002.72;5074770;28;20203;-77
2024/03/22 07:21:03;;;;;;;51.00;36.50;;;;;;;14.11;66.00;101001.03;5075133;28;20555;-80
2024/03/22 07:23:29;;;;;;;48.43;37.97;;;;;;;14.25;65.57;100994.91;5055448;28;20177;-77
2024/03/22 07:25:54;;;;;;;48.20;36.73;;;;;;;14.60;64.51;101001.78;5067211;28;20165;-76
2024/03/22 07:28:19;;;;;;;46.17;35.80;;;;;;;14.19;65.96;101011.47;5053400;28;20194;-76
2024/03/22 07:30:45;;;;;;;52.13;39.67;;;;;;;14.76;64.64;101008.78;5037729;28;20177;-76
2024/03/22 07:33:16;;;;;;;53.97;38.20;;;;;;;14.88;63.99;101001.75;5056843;28;20184;-77
2024/03/22 07:35:41;;;;;;;48.63;37.00;;;;;;;14.45;65.21;101010.56;5057033;28;20169;-76
2024/03/22 07:38:07;;;;;;;49.47;38.20;;;;;;;14.54;65.20;101002.69;5066402;28;20809;-76
2024/03/22 07:40:32;;;;;;;48.77;37.07;;;;;;;14.48;65.00;101006.19;5077376;28;20180;-76
2024/03/22 07:42:59;;;;;;;51.70;39.63;;;;;;;14.22;65.74;101005.38;5063699;28;20169;-76
2024/03/22 07:45:24;;;;;;;49.23;37.43;;;;;;;14.16;66.26;101006.25;5060063;28;20169;-77
2024/03/22 07:47:50;;;;;;;51.87;37.23;;;;;;;14.31;66.13;100994.88;5058131;28;20427;-78
2024/03/22 07:50:15;;;;;;;53.23;39.50;;;;;;;14.14;66.65;101001.00;5058363;28;20173;-76
2024/03/22 07:52:42;;;;;;;48.30;37.47;;;;;;;14.20;66.56;101007.13;5058519;28;20170;-77
2024/03/22 07:55:07;;;;;;;55.23;40.67;;;;;;;14.34;65.92;101007.97;5062132;28;20169;-77
2024/03/22 07:57:33;;;;;;;50.80;39.20;;;;;;;14.11;66.86;101003.66;5061679;28;20451;-77
2024/03/22 07:59:58;;;;;;;51.37;38.90;;;;;;;14.05;67.95;101006.25;5060943;28;20201;-77
2024/03/22 08:02:23;;;;;;;51.73;39.80;;;;;;;14.59;65.96;101000.06;5061800;28;20173;-77
2024/03/22 08:04:49;;;;;;;54.17;39.67;;;;;;;14.37;66.45;100992.25;5060690;28;20164;-77
2024/03/22 08:07:14;;;;;;;52.20;38.03;;;;;;;13.59;68.40;100987.91;5057472;28;20835;-76
2024/03/22 08:09:40;;;;;;;55.23;40.00;;;;;;;14.07;67.10;100987.91;5060120;28;20189;-76
2024/03/22 08:12:06;;;;;;;57.20;40.50;;;;;;;13.97;67.94;100990.53;5059582;28;20177;-77
2024/03/22 08:14:31;;;;;;;58.67;42.87;;;;;;;14.17;68.05;100980.91;5074017;28;20180;-75
2024/03/22 08:16:56;;;;;;;56.30;41.20;;;;;;;14.13;67.96;100980.03;5080892;28;20434;-77
2024/03/22 08:19:22;;;;;;;55.30;41.77;;;;;;;13.75;69.94;100987.03;5060926;28;20227;-75
2024/03/22 08:21:47;;;;;;;61.33;43.40;;;;;;;14.18;68.40;100972.16;5063892;28;20196;-76
2024/03/22 08:24:12;;;;;;;63.13;42.73;;;;;;;14.24;69.07;100974.78;5064865;28;20164;-77
2024/03/22 08:26:38;;;;;;;60.00;41.77;;;;;;;13.50;70.79;100966.94;5068898;28;20241;-76
2024/03/22 08:29:03;;;;;;;62.57;43.67;;;;;;;14.23;69.34;100966.03;5060817;28;20697;-77
2024/03/22 08:31:28;;;;;;;58.30;42.80;;;;;;;14.65;68.11;100966.84;5061310;28;20162;-76
2024/03/22 08:33:55;;;;;;;56.40;42.10;;;;;;;14.25;68.88;100974.78;5061426;28;20170;-75
2024/03/22 08:36:21;;;;;;;59.27;39.93;;;;;;;13.76;70.21;100973.06;5041123;28;20219;-78
2024/03/22 08:38:46;;;;;;;68.00;43.50;;;;;;;14.06;69.25;100971.31;5056636;28;20804;-77
2024/03/22 08:41:12;;;;;;;60.90;43.77;;;;;;;13.66;70.73;100963.44;5058228;28;20235;-77
2024/03/22 08:43:37;;;;;;;59.30;42.50;;;;;;;13.25;71.93;100961.63;5059259;28;20200;-77
2024/03/22 08:46:03;;;;;;;62.30;42.27;;;;;;;13.96;70.92;100959.06;5041498;28;20189;-77
2024/03/22 08:48:28;;;;;;;60.70;44.03;;;;;;;14.30;69.85;100956.41;5058882;28;20674;-77
2024/03/22 08:50:54;;;;;;;69.80;45.27;;;;;;;13.97;71.00;100960.81;5057935;28;20451;-77
2024/03/22 08:53:19;;;;;;;62.70;42.80;;;;;;;14.24;70.10;100957.28;5042014;28;20178;-77
2024/03/22 08:55:46;;;;;;;69.27;45.40;;;;;;;14.41;70.38;100962.50;5057354;28;20173;-77
2024/03/22 08:58:12;;;;;;;66.00;44.87;;;;;;;14.30;69.95;100965.16;5081205;22;20239;-76
2024/03/22 09:00:38;;;;;;;68.77;44.40;;;;;;;14.54;69.48;100954.59;5091972;28;20449;-75
2024/03/22 09:03:03;;;;;;;70.37;46.30;;;;;;;14.07;70.56;100949.47;5093532;28;20438;-76
2024/03/22 09:05:28;;;;;;;63.67;44.90;;;;;;;14.06;71.03;100955.59;5093993;28;20222;-77
2024/03/22 09:07:55;;;;;;;68.57;44.60;;;;;;;14.30;70.51;100959.91;5093552;28;20209;-76
2024/03/22 09:10:21;;;;;;;65.70;44.83;;;;;;;14.05;70.49;100945.97;5093761;28;20188;-75
2024/03/22 09:12:46;;;;;;;69.20;46.13;;;;;;;14.51;69.66;100938.88;5093983;28;20417;-74
2024/03/22 09:15:11;;;;;;;68.53;45.77;;;;;;;14.33;69.93;100945.91;5093836;28;20183;-77
2024/03/22 09:17:37;;;;;;;65.20;43.80;;;;;;;14.02;71.20;100948.59;5094351;28;20321;-76
2024/03/22 09:20:03;;;;;;;69.13;45.17;;;;;;;14.05;71.41;100939.84;5093106;28;20566;-74
2024/03/22 09:22:29;;;;;;;66.33;44.10;;;;;;;13.97;71.31;100932.84;5093239;28;20164;-76
2024/03/22 09:24:54;;;;;;;69.70;43.73;;;;;;;14.09;71.33;100920.63;5094163;28;20413;-77
2024/03/22 09:27:20;;;;;;;62.77;42.53;;;;;;;14.00;70.65;100918.00;5076494;28;20192;-76
2024/03/22 09:29:45;;;;;;;65.23;42.77;;;;;;;13.44;71.85;100921.53;5073193;28;20246;-76
2024/03/22 09:32:10;;;;;;;57.90;41.00;;;;;;;14.04;71.03;100925.00;5072423;28;20173;-76
2024/03/22 09:34:36;;;;;;;55.67;39.37;;;;;;;14.48;69.49;100926.63;5073386;28;20166;-77
2024/03/22 09:37:01;;;;;;;58.77;38.67;;;;;;;14.13;70.20;100919.75;5073610;28;20604;-76
2024/03/22 09:39:27;;;;;;;52.43;39.40;;;;;;;13.89;69.56;100916.28;5073190;28;20192;-76
2024/03/22 09:41:56;;;;;;;49.73;37.37;;;;;;;14.82;68.35;100905.53;5073903;28;20165;-74
2024/03/22 09:44:23;;;;;;;49.37;36.60;;;;;;;14.46;69.48;100910.91;5073727;28;20169;-76
2024/03/22 09:46:50;;;;;;;51.40;36.50;;;;;;;14.60;69.14;100896.84;5072673;28;20411;-75
2024/03/22 09:49:16;;;;;;;50.87;35.97;;;;;;;14.30;69.88;100911.81;5072201;28;20471;-76
2024/03/22 09:51:43;;;;;;;55.77;37.33;;;;;;;14.13;70.85;100902.25;5072596;28;20386;-76
2024/03/22 09:54:11;;;;;;;48.40;36.30;;;;;;;14.32;70.42;100903.06;5072267;28;20169;-76
2024/03/22 09:56:39;;;;;;;54.17;38.87;;;;;;;14.21;70.66;100901.38;5073720;28;20447;-77
2024/03/22 09:59:05;;;;;;;52.13;37.73;;;;;;;13.52;73.14;100904.94;5072257;28;20446;-75
2024/03/22 10:01:32;;;;;;;54.37;36.97;;;;;;;14.14;71.83;100905.75;5078885;28;20445;-76
2024/03/22 10:03:57;;;;;;;56.53;40.77;;;;;;;14.20;71.34;100900.50;5076276;28;20415;-76
2024/03/22 10:06:22;;;;;;;57.97;40.50;;;;;;;14.39;71.40;100890.81;5072531;28;20418;-76
2024/03/22 10:08:48;;;;;;;56.93;39.20;;;;;;;13.75;73.39;100887.47;5072924;28;20516;-79
2024/03/22 10:11:13;;;;;;;54.10;38.30;;;;;;;13.95;73.14;100897.94;5074029;28;20195;-76
2024/03/22 10:13:38;;;;;;;65.17;41.60;;;;;;;13.43;74.22;100890.97;5078705;28;20254;-76
2024/03/22 10:16:04;;;;;;;57.50;39.83;;;;;;;13.89;73.03;100889.19;5093110;28;20247;-76
2024/03/22 10:18:33;;;;;;;54.40;39.13;;;;;;;13.54;73.57;100890.09;5093490;28;20192;-76
2024/03/22 10:21:03;;;;;;;55.60;37.67;;;;;;;13.56;73.80;100888.38;5093152;28;20441;-76
2024/03/22 10:23:29;;;;;;;58.63;43.83;;;;;;;14.21;72.28;100888.28;5093437;28;20402;-75
2024/03/22 10:25:59;;;;;;;78.23;52.40;;;;;;;13.71;72.98;100887.50;5087495;28;20386;-76
2024/03/22 10:28:25;;;;;;;49.87;35.00;;;;;;;14.13;71.94;100890.91;5073033;28;20490;-76
2024/03/22 10:30:54;;;;;;;44.13;33.37;;;;;;;13.92;73.04;100897.94;5071193;28;20538;-75
2024/03/22 10:33:23;;;;;;;45.63;33.20;;;;;;;14.28;72.08;100888.22;5071662;28;20485;-76
2024/03/22 10:35:51;;;;;;;44.73;30.93;;;;;;;14.49;70.88;100889.91;5072842;28;20434;-77
2024/03/22 10:38:18;;;;;;;38.43;30.50;;;;;;;14.20;72.12;100886.50;5072379;28;20470;-76
2024/03/22 10:40:46;;;;;;;39.63;30.80;;;;;;;14.14;72.58;100892.66;5074020;28;20822;-76
2024/03/22 10:43:12;;;;;;;41.03;29.77;;;;;;;14.57;71.22;100886.38;5072803;28;20418;-76
2024/03/22 10:45:39;;;;;;;41.20;28.43;;;;;;;14.49;71.85;100883.75;5072178;28;20407;-76
2024/03/22 10:48:09;;;;;;;34.40;25.57;;;;;;;14.14;72.20;100883.03;5072062;28;20751;-76
2024/03/22 10:50:37;;;;;;;30.40;23.90;;;;;;;14.33;71.51;100872.50;5072039;28;20780;-76
2024/03/22 10:53:06;;;;;;;28.50;22.07;;;;;;;14.10;71.81;100877.81;5073500;28;20411;-76
2024/03/22 10:55:38;;;;;;;32.70;23.57;;;;;;;14.27;71.91;100880.38;5073513;28;20488;-77
2024/03/22 10:58:04;;;;;;;27.53;21.73;;;;;;;14.01;72.67;100880.44;5083159;28;20458;-78
2024/03/22 11:00:34;;;;;;;26.43;19.93;;;;;;;14.15;71.31;100897.00;5083492;28;20444;-76
2024/03/22 11:03:02;;;;;;;25.43;20.37;;;;;;;14.22;71.89;100885.63;5094603;28;20410;-76